Time;durP1;ratioP1;P1;durP2;ratioP2;P2;SDS_P1;SDS_P2;PMS_P1;PMS_P2;Temp;Humidity;BMP_temperature;BMP_pressure;BME280_temperature;BME280_humidity;BME280_pressure;Samples;Min_cycle;Max_cycle;Signal;HPM_P1;HPM_P2
2023/12/06 04:02:32;;;;;;;0.30;0.30;;;21.80;26.00;;;;;;4972512;23;46870;-81
2023/12/06 04:04:58;;;;;;;0.70;0.47;;;21.70;26.10;;;;;;4935441;28;45401;-86
2023/12/06 04:07:24;;;;;;;0.63;0.38;;;21.80;26.10;;;;;;4926912;28;47809;-88
2023/12/06 04:09:51;;;;;;;0.55;0.40;;;21.80;26.10;;;;;;4928024;28;45255;-87
2023/12/06 04:12:17;;;;;;;0.47;0.47;;;21.80;26.10;;;;;;4948193;28;45246;-84
2023/12/06 04:14:43;;;;;;;0.63;0.50;;;21.80;26.10;;;;;;4951849;28;44925;-83
2023/12/06 04:17:10;;;;;;;0.60;0.40;;;21.80;26.10;;;;;;4910604;28;46160;-82
2023/12/06 04:19:36;;;;;;;2.10;0.50;;;21.80;26.10;;;;;;4931005;28;44737;-87
2023/12/06 04:22:02;;;;;;;0.65;0.60;;;21.80;26.20;;;;;;4914747;28;45384;-81
2023/12/06 04:24:30;;;;;;;0.70;0.57;;;21.80;26.10;;;;;;4929227;28;45180;-81
2023/12/06 04:26:59;;;;;;;0.75;0.50;;;21.80;26.20;;;;;;4932502;28;46148;-83
2023/12/06 04:29:25;;;;;;;0.40;0.40;;;21.90;26.20;;;;;;4917528;28;45314;-81
2023/12/06 04:31:51;;;;;;;0.40;0.40;;;21.80;26.20;;;;;;4946808;28;44710;-82
2023/12/06 04:34:19;;;;;;;0.60;0.40;;;21.80;26.20;;;;;;4970923;28;45168;-80
2023/12/06 04:36:46;;;;;;;0.60;0.50;;;21.90;26.20;;;;;;4969917;28;45630;-85
2023/12/06 04:39:14;;;;;;;0.70;0.50;;;21.90;26.20;;;;;;4911033;28;44790;-81
2023/12/06 04:41:39;;;;;;;0.80;0.50;;;21.90;26.20;;;;;;4950519;28;45192;-82
2023/12/06 04:44:06;;;;;;;0.60;0.50;;;21.90;26.30;;;;;;4967093;28;44859;-82
2023/12/06 04:46:32;;;;;;;0.50;0.40;;;21.90;26.20;;;;;;4945727;28;45343;-84
2023/12/06 04:48:58;;;;;;;0.50;0.40;;;21.90;26.20;;;;;;4946463;28;44698;-82
2023/12/06 04:51:23;;;;;;;0.55;0.38;;;22.00;26.30;;;;;;4940084;28;45419;-81
2023/12/06 04:53:50;;;;;;;0.70;0.60;;;22.00;26.20;;;;;;4942129;28;45142;-84
2023/12/06 04:56:16;;;;;;;1.10;0.50;;;22.00;26.20;;;;;;4943139;28;46952;-82
2023/12/06 04:58:42;;;;;;;0.93;0.47;;;22.00;26.20;;;;;;4946279;28;45354;-81
2023/12/06 05:01:08;;;;;;;0.57;0.50;;;22.00;26.20;;;;;;4919975;28;45414;-81
2023/12/06 05:03:34;;;;;;;0.60;0.50;;;22.00;26.20;;;;;;4926523;28;45476;-79
2023/12/06 05:06:00;;;;;;;0.80;0.55;;;22.00;26.20;;;;;;4905376;28;46091;-82
2023/12/06 05:08:26;;;;;;;0.68;0.45;;;22.00;26.20;;;;;;4939187;28;45400;-82
2023/12/06 05:10:55;;;;;;;0.82;0.40;;;22.10;26.20;;;;;;4906238;28;45437;-85
2023/12/06 05:13:21;;;;;;;0.60;0.50;;;22.10;26.20;;;;;;4909605;28;45242;-84
2023/12/06 05:15:47;;;;;;;0.43;0.40;;;22.10;26.20;;;;;;4907733;28;47129;-82
2023/12/06 05:18:13;;;;;;;0.75;0.50;;;22.10;26.20;;;;;;4912070;28;45336;-85
2023/12/06 05:20:42;;;;;;;0.80;0.50;;;22.20;26.20;;;;;;4907599;28;45272;-81
2023/12/06 05:23:09;;;;;;;0.57;0.40;;;22.20;26.20;;;;;;4923204;28;45233;-88
2023/12/06 05:25:35;;;;;;;0.70;0.30;;;22.20;26.20;;;;;;4906221;28;45321;-85
2023/12/06 05:28:01;;;;;;;0.88;0.50;;;22.20;26.20;;;;;;4917316;28;45494;-81
2023/12/06 05:30:29;;;;;;;1.48;0.60;;;22.20;26.20;;;;;;4917877;28;44726;-82
2023/12/06 05:32:58;;;;;;;0.75;0.40;;;22.20;26.20;;;;;;4908755;28;45369;-80
2023/12/06 05:35:24;;;;;;;0.97;0.47;;;22.20;26.20;;;;;;4909705;28;45371;-80
2023/12/06 05:37:50;;;;;;;0.55;0.35;;;22.30;26.20;;;;;;4909965;28;44643;-88
2023/12/06 05:40:17;;;;;;;0.50;0.40;;;22.30;26.20;;;;;;4927721;28;45223;-85
2023/12/06 05:42:43;;;;;;;0.70;0.40;;;22.30;26.20;;;;;;4912935;28;44781;-82
2023/12/06 05:45:12;;;;;;;0.70;0.30;;;22.30;26.20;;;;;;4910955;28;46416;-83
2023/12/06 05:47:38;;;;;;;0.40;0.40;;;22.30;26.10;;;;;;4885567;28;45174;-79
2023/12/06 05:50:10;;;;;;;0.40;0.40;;;22.40;26.20;;;;;;4941637;28;44593;-92
2023/12/06 05:52:37;;;;;;;0.53;0.30;;;22.40;26.20;;;;;;4913108;28;45184;-84
2023/12/06 05:55:05;;;;;;;0.50;0.30;;;22.40;26.10;;;;;;4917722;28;45314;-92
2023/12/06 05:57:32;;;;;;;1.45;0.30;;;22.50;26.10;;;;;;4931947;28;45545;-82
2023/12/06 05:59:58;;;;;;;1.00;0.40;;;22.50;26.10;;;;;;4906074;28;45455;-84
2023/12/06 06:02:24;;;;;;;0.40;0.30;;;22.50;26.10;;;;;;4927297;28;45131;-79
2023/12/06 06:04:50;;;;;;;1.02;0.40;;;22.60;26.10;;;;;;4924941;28;46339;-81
2023/12/06 06:07:16;;;;;;;1.15;0.40;;;22.60;26.60;;;;;;4939591;28;45512;-80
2023/12/06 06:09:42;;;;;;;1.20;0.30;;;22.60;26.10;;;;;;4933065;28;45172;-83
2023/12/06 06:12:08;;;;;;;0.30;0.30;;;22.60;26.00;;;;;;4942105;28;45488;-82
2023/12/06 06:14:34;;;;;;;0.85;0.30;;;22.70;26.00;;;;;;4925126;28;46328;-85
2023/12/06 06:17:00;;;;;;;0.50;0.30;;;22.70;26.00;;;;;;4920310;28;44681;-85
2023/12/06 06:19:26;;;;;;;0.52;0.30;;;22.70;25.90;;;;;;4928773;28;45052;-83
2023/12/06 06:21:51;;;;;;;2.95;0.30;;;22.80;25.90;;;;;;4927465;28;45660;-84
2023/12/06 06:24:17;;;;;;;0.32;0.30;;;22.80;25.90;;;;;;4941306;28;45924;-83
2023/12/06 06:26:43;;;;;;;0.55;0.40;;;22.80;25.80;;;;;;4906778;28;45453;-83
2023/12/06 06:29:09;;;;;;;0.60;0.30;;;22.80;25.80;;;;;;4927123;28;45893;-83
2023/12/06 06:31:34;;;;;;;0.40;0.37;;;22.80;25.80;;;;;;4923777;28;45861;-84
2023/12/06 06:34:03;;;;;;;0.60;0.38;;;22.90;25.80;;;;;;4926751;28;46287;-85
2023/12/06 06:36:29;;;;;;;1.00;0.30;;;22.90;25.80;;;;;;4931054;28;45235;-81
2023/12/06 06:38:55;;;;;;;0.52;0.32;;;22.90;25.70;;;;;;4944063;28;45860;-89
2023/12/06 06:41:24;;;;;;;0.37;0.30;;;22.90;25.70;;;;;;4939807;28;45431;-84
2023/12/06 06:43:50;;;;;;;0.45;0.30;;;23.00;25.70;;;;;;4942089;28;45570;-80
2023/12/06 06:46:16;;;;;;;0.53;0.40;;;23.00;25.70;;;;;;4932139;28;45508;-84
2023/12/06 06:48:42;;;;;;;0.60;0.30;;;23.00;25.70;;;;;;4924931;28;44953;-81
2023/12/06 06:51:09;;;;;;;0.30;0.30;;;23.10;25.70;;;;;;4923679;28;44956;-81
2023/12/06 06:53:34;;;;;;;0.80;0.50;;;23.10;25.70;;;;;;4927163;28;45200;-80
2023/12/06 06:56:03;;;;;;;0.30;0.30;;;23.10;25.70;;;;;;4940570;28;45836;-84
2023/12/06 06:58:30;;;;;;;0.50;0.35;;;23.10;25.70;;;;;;4950037;28;45793;-81
2023/12/06 07:00:55;;;;;;;0.32;0.32;;;23.10;25.60;;;;;;4920792;28;45215;-84
2023/12/06 07:03:21;;;;;;;0.57;0.47;;;23.10;25.60;;;;;;4925227;28;46128;-83
2023/12/06 07:05:47;;;;;;;0.50;0.40;;;23.10;25.60;;;;;;4938893;28;45086;-84
2023/12/06 07:08:13;;;;;;;0.97;0.40;;;23.20;25.60;;;;;;4912574;28;45214;-81
2023/12/06 07:10:45;;;;;;;0.63;0.38;;;23.20;25.60;;;;;;4939143;28;45104;-86
2023/12/06 07:13:10;;;;;;;1.02;0.30;;;23.20;25.60;;;;;;4911077;28;48054;-84
2023/12/06 07:15:36;;;;;;;0.47;0.40;;;23.20;25.60;;;;;;4906412;28;45511;-81
2023/12/06 07:18:01;;;;;;;0.40;0.40;;;23.20;25.60;;;;;;4911695;28;45493;-85
2023/12/06 07:20:30;;;;;;;1.48;0.45;;;23.20;25.60;;;;;;4909249;28;44917;-91
2023/12/06 07:23:00;;;;;;;0.50;0.38;;;23.20;25.50;;;;;;4910022;28;47134;-87
2023/12/06 07:25:29;;;;;;;0.60;0.40;;;23.20;25.50;;;;;;4922420;28;45552;-83
2023/12/06 07:27:55;;;;;;;0.50;0.30;;;23.30;25.50;;;;;;4922008;28;45575;-85
2023/12/06 07:30:20;;;;;;;0.30;0.22;;;23.20;25.50;;;;;;4907756;28;44880;-82
2023/12/06 07:32:46;;;;;;;0.60;0.40;;;23.30;25.60;;;;;;4928720;28;45586;-83
2023/12/06 07:35:12;;;;;;;0.90;0.40;;;23.30;25.50;;;;;;4924196;28;45278;-87
2023/12/06 07:37:38;;;;;;;0.40;0.30;;;23.30;25.60;;;;;;4921523;28;45461;-82
2023/12/06 07:40:11;;;;;;;0.30;0.30;;;23.30;25.50;;;;;;4945982;28;45257;-90
2023/12/06 07:42:36;;;;;;;0.75;0.40;;;23.30;25.50;;;;;;4912903;28;46499;-83
2023/12/06 07:45:11;;;;;;;0.40;0.30;;;23.30;25.50;;;;;;4948077;28;45068;-92
2023/12/06 07:47:39;;;;;;;0.30;0.30;;;23.30;25.50;;;;;;4928462;28;45426;-84
2023/12/06 07:50:06;;;;;;;0.38;0.30;;;23.30;25.50;;;;;;4962408;28;45705;-86
2023/12/06 07:52:33;;;;;;;0.70;0.40;;;23.30;25.50;;;;;;4909006;28;45598;-87
2023/12/06 07:55:00;;;;;;;1.73;0.47;;;23.30;25.50;;;;;;4924487;28;45469;-83
2023/12/06 07:57:28;;;;;;;0.43;0.30;;;23.30;25.50;;;;;;4925100;28;44986;-86
2023/12/06 07:59:55;;;;;;;0.47;0.40;;;23.30;26.00;;;;;;4926756;28;45620;-81
2023/12/06 08:02:21;;;;;;;0.60;0.30;;;23.30;25.50;;;;;;4928544;28;45348;-81
2023/12/06 08:04:47;;;;;;;1.00;0.40;;;23.30;25.50;;;;;;4917778;28;45324;-83
2023/12/06 08:07:14;;;;;;;0.55;0.30;;;23.30;25.50;;;;;;4925150;28;44992;-81
2023/12/06 08:09:40;;;;;;;0.70;0.30;;;23.30;25.50;;;;;;4944652;28;44852;-81
2023/12/06 08:12:09;;;;;;;0.70;0.38;;;23.30;25.50;;;;;;4943303;28;46530;-89
2023/12/06 08:14:35;;;;;;;0.63;0.30;;;23.30;25.50;;;;;;4928048;28;45533;-82
2023/12/06 08:17:01;;;;;;;0.38;0.30;;;23.30;25.50;;;;;;4936890;28;45366;-81
2023/12/06 08:19:27;;;;;;;0.43;0.30;;;23.30;25.40;;;;;;4927181;28;45374;-89
2023/12/06 08:21:55;;;;;;;0.70;0.20;;;23.30;25.50;;;;;;4940997;28;46082;-86
2023/12/06 08:24:21;;;;;;;0.30;0.30;;;23.30;25.90;;;;;;4914675;28;45149;-81
2023/12/06 08:26:47;;;;;;;0.30;0.30;;;23.30;25.50;;;;;;4944140;28;45168;-83
2023/12/06 08:29:13;;;;;;;0.33;0.20;;;23.30;25.50;;;;;;4929441;28;45478;-81
2023/12/06 08:31:39;;;;;;;0.98;0.50;;;23.30;25.40;;;;;;4941865;28;45406;-86
2023/12/06 08:34:05;;;;;;;0.50;0.50;;;23.30;25.40;;;;;;4923109;28;45516;-81
2023/12/06 08:36:31;;;;;;;1.00;0.30;;;23.30;25.40;;;;;;4942098;28;45029;-84
2023/12/06 08:38:57;;;;;;;0.55;0.40;;;23.30;25.40;;;;;;4914214;28;45536;-84
2023/12/06 08:41:23;;;;;;;0.30;0.30;;;23.30;25.40;;;;;;4960873;28;45639;-82
2023/12/06 08:43:49;;;;;;;0.50;0.40;;;23.30;25.40;;;;;;4928555;28;45451;-82
2023/12/06 08:46:15;;;;;;;1.27;0.45;;;23.30;25.40;;;;;;4940131;28;45014;-81
2023/12/06 08:48:41;;;;;;;0.50;0.40;;;23.30;25.40;;;;;;4943742;28;45100;-84
2023/12/06 08:51:08;;;;;;;0.40;0.35;;;23.30;25.90;;;;;;4945219;28;47157;-84
2023/12/06 08:53:34;;;;;;;0.40;0.40;;;23.30;25.40;;;;;;4922761;28;44631;-82
2023/12/06 08:56:01;;;;;;;0.30;0.30;;;23.30;25.40;;;;;;4925148;28;44806;-84
2023/12/06 08:58:27;;;;;;;1.03;0.50;;;23.30;25.40;;;;;;4950245;28;45665;-82
2023/12/06 09:00:53;;;;;;;0.40;0.35;;;23.30;25.40;;;;;;4938859;28;45315;-85
2023/12/06 09:03:19;;;;;;;0.80;0.40;;;23.30;25.50;;;;;;4942799;28;45278;-86
2023/12/06 09:05:44;;;;;;;0.90;0.40;;;23.30;25.40;;;;;;4922898;28;45400;-82
2023/12/06 09:08:13;;;;;;;1.00;0.30;;;23.30;25.40;;;;;;4944321;28;45515;-90
2023/12/06 09:10:39;;;;;;;0.70;0.50;;;23.30;25.50;;;;;;4912106;28;46414;-83
2023/12/06 09:13:05;;;;;;;0.38;0.30;;;23.30;25.40;;;;;;4929754;28;45342;-84
2023/12/06 09:15:31;;;;;;;0.70;0.40;;;23.30;25.40;;;;;;4947960;28;45223;-81
2023/12/06 09:17:57;;;;;;;0.47;0.30;;;23.30;25.40;;;;;;4926837;28;45420;-83
2023/12/06 09:20:23;;;;;;;0.50;0.40;;;23.30;25.40;;;;;;4947526;28;46555;-83
2023/12/06 09:22:50;;;;;;;0.60;0.50;;;23.30;25.40;;;;;;4942303;28;45228;-80
2023/12/06 09:25:16;;;;;;;0.20;0.20;;;23.30;25.40;;;;;;4946548;28;45420;-83
2023/12/06 09:27:42;;;;;;;0.40;0.40;;;23.30;25.40;;;;;;4923938;28;45393;-80
2023/12/06 09:30:10;;;;;;;0.70;0.50;;;23.30;25.50;;;;;;4930874;28;46218;-85
2023/12/06 09:32:36;;;;;;;0.30;0.30;;;23.30;25.40;;;;;;4946866;28;45226;-88
2023/12/06 09:35:10;;;;;;;0.27;0.20;;;23.30;25.40;;;;;;4924502;28;44870;-88
2023/12/06 09:37:36;;;;;;;0.40;0.30;;;23.30;25.50;;;;;;4926372;28;45279;-87
2023/12/06 09:40:05;;;;;;;0.30;0.30;;;23.30;25.50;;;;;;4960362;28;45632;-82
2023/12/06 09:42:32;;;;;;;0.35;0.30;;;23.30;25.40;;;;;;4931325;28;45428;-82
2023/12/06 09:44:59;;;;;;;0.20;0.20;;;23.30;25.40;;;;;;4944084;28;44649;-84
2023/12/06 09:47:24;;;;;;;0.40;0.30;;;23.30;25.50;;;;;;4937590;28;45242;-84
2023/12/06 09:49:50;;;;;;;0.50;0.30;;;23.30;25.50;;;;;;4939812;28;45962;-84
2023/12/06 09:52:21;;;;;;;0.40;0.30;;;23.30;25.40;;;;;;4929828;28;45542;-84
2023/12/06 09:54:48;;;;;;;0.55;0.30;;;23.30;25.50;;;;;;4942564;28;44662;-81
2023/12/06 09:57:14;;;;;;;0.20;0.20;;;23.20;25.40;;;;;;4957052;28;45279;-83
2023/12/06 09:59:42;;;;;;;0.40;0.30;;;23.30;25.50;;;;;;4937416;28;46187;-85
2023/12/06 10:02:09;;;;;;;0.30;0.30;;;23.20;25.40;;;;;;4961242;28;45189;-80
2023/12/06 10:04:35;;;;;;;0.43;0.30;;;23.20;25.40;;;;;;4942994;28;45188;-82
2023/12/06 10:07:02;;;;;;;0.50;0.38;;;23.20;25.40;;;;;;4926754;28;45619;-85
2023/12/06 10:09:28;;;;;;;0.68;0.43;;;23.20;25.40;;;;;;4957534;28;45795;-86
2023/12/06 10:12:30;;;;;;;0.35;0.35;;;23.20;25.40;;;;;;4910149;28;45534;-82
2023/12/06 10:14:59;;;;;;;0.63;0.50;;;23.20;25.40;;;;;;4941555;28;45401;-87
2023/12/06 10:17:25;;;;;;;0.50;0.30;;;23.20;25.50;;;;;;4921790;28;45235;-80
2023/12/06 10:19:50;;;;;;;0.60;0.40;;;23.20;25.40;;;;;;4945189;28;45900;-86
2023/12/06 10:22:16;;;;;;;0.57;0.40;;;23.20;25.40;;;;;;4920005;28;45184;-81
2023/12/06 10:24:43;;;;;;;0.90;0.60;;;23.20;25.50;;;;;;4941103;28;45534;-82
2023/12/06 10:27:11;;;;;;;0.60;0.40;;;23.20;25.40;;;;;;4944971;28;45172;-81
2023/12/06 10:29:37;;;;;;;0.65;0.50;;;23.20;25.50;;;;;;4930754;28;45955;-82
2023/12/06 10:32:03;;;;;;;0.90;0.50;;;23.20;25.50;;;;;;4922877;28;45588;-81
2023/12/06 10:34:29;;;;;;;1.23;0.50;;;23.20;25.80;;;;;;4941933;28;45298;-81
2023/12/06 10:36:58;;;;;;;0.70;0.57;;;23.20;25.50;;;;;;4909662;28;45115;-87
2023/12/06 10:39:24;;;;;;;0.90;0.57;;;23.10;25.40;;;;;;4958646;28;46207;-83
2023/12/06 10:41:49;;;;;;;1.00;0.50;;;23.10;25.50;;;;;;4961469;28;45569;-80
2023/12/06 10:44:15;;;;;;;0.93;0.57;;;23.10;25.50;;;;;;4930609;28;45230;-82
2023/12/06 10:46:41;;;;;;;0.90;0.65;;;23.20;25.50;;;;;;4941374;28;45589;-83
2023/12/06 10:49:08;;;;;;;1.13;0.70;;;23.10;25.50;;;;;;4944187;28;47122;-82
2023/12/06 10:51:34;;;;;;;1.10;0.60;;;23.10;25.50;;;;;;4920544;28;45353;-85
2023/12/06 10:54:00;;;;;;;0.90;0.60;;;23.10;25.50;;;;;;4932575;28;45364;-83
2023/12/06 10:56:27;;;;;;;0.87;0.60;;;23.10;25.50;;;;;;4933350;28;45299;-84
2023/12/06 10:59:15;;;;;;;0.70;0.60;;;23.10;25.50;;;;;;4923060;28;47351;-80
2023/12/06 11:01:41;;;;;;;1.00;0.70;;;23.10;25.50;;;;;;4954797;28;45461;-84
2023/12/06 11:04:07;;;;;;;0.80;0.60;;;23.10;25.50;;;;;;4941575;28;45735;-86
2023/12/06 11:06:37;;;;;;;0.77;0.70;;;23.10;25.50;;;;;;4927109;28;45461;-80
2023/12/06 11:09:09;;;;;;;0.80;0.60;;;23.10;25.50;;;;;;4934384;28;45806;-84
2023/12/06 11:11:40;;;;;;;0.80;0.70;;;23.10;25.60;;;;;;4942296;28;45171;-86
2023/12/06 11:14:15;;;;;;;0.90;0.70;;;23.10;25.60;;;;;;4960325;28;45955;-82
2023/12/06 11:16:54;;;;;;;0.93;0.60;;;23.10;25.60;;;;;;4953176;28;45401;-80
2023/12/06 11:19:20;;;;;;;0.60;0.60;;;23.10;25.60;;;;;;4940785;28;45463;-80
2023/12/06 11:21:45;;;;;;;1.02;0.70;;;23.10;25.60;;;;;;4930650;28;45376;-85
2023/12/06 11:24:11;;;;;;;1.00;0.60;;;23.10;25.60;;;;;;4939909;28;44948;-81
2023/12/06 11:26:37;;;;;;;1.00;0.70;;;23.10;25.60;;;;;;4928176;28;45417;-84
2023/12/06 11:29:03;;;;;;;0.95;0.70;;;23.10;25.60;;;;;;4961213;28;45621;-81
2023/12/06 11:31:37;;;;;;;0.90;0.70;;;23.10;25.60;;;;;;4916376;28;45250;-81
2023/12/06 11:34:09;;;;;;;1.65;0.68;;;23.10;25.70;;;;;;4929233;28;45422;-82
2023/12/06 11:36:35;;;;;;;1.10;0.60;;;23.00;25.60;;;;;;4933613;28;45249;-81
2023/12/06 11:39:13;;;;;;;0.95;0.70;;;23.00;25.60;;;;;;4946953;28;47014;-80
2023/12/06 11:41:54;;;;;;;0.70;0.70;;;23.00;25.60;;;;;;4944663;28;45496;-85
2023/12/06 11:44:20;;;;;;;1.17;0.60;;;23.00;25.70;;;;;;4949247;28;45692;-82
2023/12/06 11:47:05;;;;;;;0.90;0.80;;;23.00;25.70;;;;;;4930384;28;44774;-82
2023/12/06 11:49:32;;;;;;;1.05;0.70;;;23.00;25.70;;;;;;4946672;28;46008;-81
2023/12/06 11:51:59;;;;;;;1.17;0.80;;;23.00;25.70;;;;;;4929928;28;45370;-81
2023/12/06 11:54:25;;;;;;;1.85;0.90;;;23.00;25.70;;;;;;4937560;28;45176;-79
2023/12/06 11:56:51;;;;;;;1.02;0.90;;;23.00;25.70;;;;;;4932660;28;45186;-80
2023/12/06 11:59:16;;;;;;;1.10;0.90;;;23.00;25.70;;;;;;4913814;28;46752;-82
2023/12/06 12:01:42;;;;;;;1.30;1.20;;;23.00;25.80;;;;;;4953454;28;45281;-81
2023/12/06 12:04:09;;;;;;;1.55;1.13;;;23.00;25.80;;;;;;4933525;28;45482;-82
2023/12/06 12:06:35;;;;;;;2.63;1.20;;;22.90;25.80;;;;;;4943670;28;45148;-82
2023/12/06 12:09:01;;;;;;;1.20;1.00;;;23.00;25.80;;;;;;4931165;28;46378;-80
2023/12/06 12:11:28;;;;;;;1.20;1.10;;;22.90;25.80;;;;;;4932586;28;45254;-83
2023/12/06 12:13:53;;;;;;;1.35;1.20;;;22.90;25.80;;;;;;4965424;28;44697;-80
2023/12/06 12:16:21;;;;;;;2.00;1.23;;;23.00;25.80;;;;;;4932164;28;45499;-82
2023/12/06 12:18:46;;;;;;;1.90;1.13;;;22.90;25.80;;;;;;4912960;28;46106;-86
2023/12/06 12:21:18;;;;;;;1.70;1.10;;;22.90;25.80;;;;;;4929927;28;45668;-81
2023/12/06 12:23:45;;;;;;;1.27;1.17;;;22.90;25.80;;;;;;4929064;28;45079;-80
2023/12/06 12:26:15;;;;;;;1.57;1.20;;;22.90;25.90;;;;;;4898865;28;45568;-84
2023/12/06 12:28:42;;;;;;;1.35;1.25;;;22.90;25.80;;;;;;4929705;28;46216;-86
2023/12/06 12:31:10;;;;;;;1.50;1.20;;;22.90;25.80;;;;;;4945555;28;45295;-80
2023/12/06 12:33:36;;;;;;;1.63;1.20;;;22.90;25.90;;;;;;4946018;28;45163;-82
2023/12/06 12:36:02;;;;;;;1.40;1.30;;;22.90;25.90;;;;;;4917179;28;45377;-82
2023/12/06 12:38:28;;;;;;;1.60;1.10;;;22.90;25.90;;;;;;4962049;28;45203;-82
2023/12/06 12:40:54;;;;;;;1.40;1.23;;;22.90;25.90;;;;;;4941635;28;45268;-83
2023/12/06 12:43:20;;;;;;;1.80;1.40;;;22.90;25.90;;;;;;4897855;28;45203;-82
2023/12/06 12:45:48;;;;;;;1.50;1.25;;;22.90;25.90;;;;;;4912925;28;45275;-83
2023/12/06 12:48:15;;;;;;;1.63;1.30;;;22.90;25.90;;;;;;4952323;28;45199;-85
2023/12/06 12:50:41;;;;;;;1.40;1.13;;;22.90;25.90;;;;;;4929531;28;45307;-81
2023/12/06 12:53:07;;;;;;;1.52;1.33;;;22.90;25.90;;;;;;4950214;28;45393;-81
2023/12/06 12:55:33;;;;;;;1.37;1.27;;;22.80;25.90;;;;;;4916230;28;45150;-80
2023/12/06 12:58:02;;;;;;;1.50;1.40;;;22.80;25.90;;;;;;4929756;28;46134;-80
2023/12/06 13:00:31;;;;;;;1.35;1.10;;;22.80;25.90;;;;;;4942457;28;45064;-88
2023/12/06 13:02:58;;;;;;;1.75;1.20;;;22.80;25.90;;;;;;4959648;28;45155;-87
2023/12/06 13:05:26;;;;;;;1.30;1.10;;;22.90;26.00;;;;;;4930357;28;45518;-80
2023/12/06 13:07:52;;;;;;;1.20;1.10;;;22.80;25.90;;;;;;4930948;28;46531;-87
2023/12/06 13:10:22;;;;;;;1.70;1.10;;;22.90;26.00;;;;;;4933099;28;44919;-84
2023/12/06 13:12:48;;;;;;;1.17;0.98;;;22.80;26.00;;;;;;4934504;28;45715;-83
2023/12/06 13:15:16;;;;;;;1.40;1.15;;;22.80;26.00;;;;;;4940978;28;44985;-82
2023/12/06 13:17:41;;;;;;;1.30;1.00;;;22.80;26.00;;;;;;4923221;28;47599;-80
2023/12/06 13:20:07;;;;;;;0.95;0.90;;;22.80;26.00;;;;;;4941083;28;44715;-84
2023/12/06 13:22:34;;;;;;;1.05;0.90;;;22.80;26.10;;;;;;4931435;28;45128;-84
2023/12/06 13:24:59;;;;;;;1.13;1.02;;;22.80;26.10;;;;;;4930043;28;45363;-85
2023/12/06 13:27:25;;;;;;;1.13;0.93;;;22.70;26.00;;;;;;4916332;28;46256;-81
2023/12/06 13:29:51;;;;;;;1.20;0.93;;;22.70;26.00;;;;;;4918871;28;45194;-85
2023/12/06 13:32:16;;;;;;;1.13;1.02;;;22.70;26.00;;;;;;4936924;28;45347;-81
2023/12/06 13:34:47;;;;;;;0.90;0.80;;;22.80;26.10;;;;;;4928605;28;44787;-80
2023/12/06 13:37:13;;;;;;;1.00;0.80;;;22.80;26.10;;;;;;4923725;28;46051;-81
2023/12/06 13:39:39;;;;;;;1.00;0.90;;;22.70;26.00;;;;;;4929306;28;44675;-80
2023/12/06 13:42:12;;;;;;;1.10;1.00;;;22.70;26.00;;;;;;4947619;28;45870;-80
2023/12/06 13:44:39;;;;;;;1.70;1.10;;;22.70;26.00;;;;;;4930366;28;44806;-80
2023/12/06 13:47:05;;;;;;;1.20;1.10;;;22.70;26.00;;;;;;4917065;28;45913;-80
2023/12/06 13:49:31;;;;;;;1.00;0.85;;;22.70;26.10;;;;;;4929461;28;45512;-82
2023/12/06 13:51:57;;;;;;;1.13;1.00;;;22.70;26.10;;;;;;4944106;28;44899;-80
2023/12/06 13:54:23;;;;;;;1.00;0.90;;;22.70;26.10;;;;;;4923141;28;45194;-80
2023/12/06 13:56:48;;;;;;;1.13;1.03;;;22.70;26.10;;;;;;4917429;28;46452;-80
2023/12/06 13:59:16;;;;;;;0.90;0.80;;;22.60;26.00;;;;;;4939505;28;45399;-80
2023/12/06 14:01:43;;;;;;;0.88;0.88;;;22.70;26.10;;;;;;4920038;28;45566;-80
2023/12/06 14:04:09;;;;;;;1.00;0.90;;;22.60;26.10;;;;;;4923057;28;45199;-80
2023/12/06 14:06:37;;;;;;;0.85;0.85;;;22.70;26.10;;;;;;4898266;28;46502;-83
2023/12/06 14:09:08;;;;;;;1.23;1.10;;;22.70;26.10;;;;;;4895094;28;44812;-80
2023/12/06 14:11:35;;;;;;;1.40;1.08;;;22.60;26.10;;;;;;4930555;28;45773;-81
2023/12/06 14:14:00;;;;;;;1.70;1.10;;;22.70;26.10;;;;;;4907493;28;45656;-81
2023/12/06 14:16:26;;;;;;;1.10;1.00;;;22.70;26.10;;;;;;4893415;28;46467;-83
2023/12/06 14:18:51;;;;;;;1.10;1.00;;;22.70;26.10;;;;;;4914015;28;44866;-85
2023/12/06 14:21:17;;;;;;;0.90;0.90;;;22.70;26.10;;;;;;4922340;28;44971;-82
2023/12/06 14:23:43;;;;;;;1.20;1.10;;;22.60;26.10;;;;;;4928818;28;45527;-85
2023/12/06 14:26:10;;;;;;;1.80;1.10;;;22.70;26.10;;;;;;4885150;28;46503;-85
2023/12/06 14:28:37;;;;;;;1.70;1.10;;;22.70;26.20;;;;;;4911315;28;45464;-82
2023/12/06 14:31:04;;;;;;;1.10;1.00;;;22.60;26.10;;;;;;4922816;28;45358;-80
2023/12/06 14:33:29;;;;;;;1.35;1.17;;;22.60;26.10;;;;;;4914930;28;45564;-80
2023/12/06 14:35:55;;;;;;;1.77;0.95;;;22.60;26.10;;;;;;4890635;28;47289;-81
2023/12/06 14:38:21;;;;;;;1.23;1.13;;;22.60;26.10;;;;;;4915741;28;44835;-80
2023/12/06 14:40:47;;;;;;;1.02;1.00;;;22.60;26.10;;;;;;4924885;28;44942;-82
2023/12/06 14:43:15;;;;;;;2.40;1.00;;;22.50;26.10;;;;;;4924162;28;45223;-80
2023/12/06 14:45:42;;;;;;;1.23;1.03;;;22.60;26.20;;;;;;4891638;28;47150;-84
2023/12/06 14:48:07;;;;;;;2.37;1.20;;;22.60;26.20;;;;;;4924588;28;45372;-81
2023/12/06 14:50:33;;;;;;;3.00;1.45;;;22.60;26.20;;;;;;4928161;28;45596;-82
2023/12/06 14:52:59;;;;;;;1.55;1.15;;;22.50;26.10;;;;;;4924416;28;45547;-82
2023/12/06 14:55:25;;;;;;;1.50;1.40;;;22.60;26.20;;;;;;4906675;28;45160;-80
2023/12/06 14:57:51;;;;;;;3.20;1.40;;;22.50;26.10;;;;;;4913303;28;45927;-80
2023/12/06 15:00:21;;;;;;;3.20;1.60;;;22.50;26.10;;;;;;4903950;28;45354;-80
2023/12/06 15:02:47;;;;;;;1.75;1.65;;;22.50;26.10;;;;;;4942623;28;45171;-84
2023/12/06 15:05:15;;;;;;;2.45;1.60;;;22.50;26.10;;;;;;4909291;28;45642;-80
2023/12/06 15:07:41;;;;;;;2.20;1.70;;;22.50;26.10;;;;;;4911013;28;45240;-82
2023/12/06 15:10:07;;;;;;;4.10;1.83;;;22.50;26.20;;;;;;4896041;28;44772;-89
2023/12/06 15:12:33;;;;;;;2.20;2.00;;;22.50;26.20;;;;;;4910911;28;45195;-80
2023/12/06 15:14:58;;;;;;;2.35;1.90;;;22.50;26.20;;;;;;4905929;28;46979;-82
2023/12/06 15:17:24;;;;;;;3.10;2.20;;;22.50;26.20;;;;;;4905072;28;45253;-82
2023/12/06 15:19:51;;;;;;;2.90;2.50;;;22.50;26.20;;;;;;4903376;28;45900;-83
2023/12/06 15:22:18;;;;;;;2.70;2.35;;;22.50;26.20;;;;;;4910988;28;45198;-80
2023/12/06 15:24:43;;;;;;;2.55;2.35;;;22.50;26.20;;;;;;4906374;28;47137;-86
2023/12/06 15:27:09;;;;;;;4.22;2.38;;;22.40;26.20;;;;;;4913964;28;45539;-81
2023/12/06 15:29:35;;;;;;;2.67;2.33;;;22.50;26.20;;;;;;4910442;28;45611;-80
2023/12/06 15:32:01;;;;;;;3.87;2.73;;;22.50;26.20;;;;;;4905653;28;46544;-81
2023/12/06 15:34:27;;;;;;;3.15;2.42;;;22.50;26.20;;;;;;4929916;28;46789;-81
2023/12/06 15:36:53;;;;;;;3.60;2.67;;;22.50;26.20;;;;;;4911905;28;44788;-80
2023/12/06 15:39:19;;;;;;;3.50;3.03;;;22.40;26.20;;;;;;4900927;28;45268;-83
2023/12/06 15:41:45;;;;;;;3.33;2.80;;;22.40;26.20;;;;;;4910120;28;45357;-89
2023/12/06 15:44:11;;;;;;;4.15;3.10;;;22.40;26.20;;;;;;4910820;28;46217;-80
2023/12/06 15:46:43;;;;;;;3.28;2.97;;;22.40;26.20;;;;;;4910554;28;45235;-81
2023/12/06 15:49:09;;;;;;;4.57;3.28;;;22.40;26.20;;;;;;4912192;28;45110;-80
2023/12/06 15:51:35;;;;;;;3.95;3.47;;;22.40;26.30;;;;;;4911388;28;45191;-84
2023/12/06 15:54:01;;;;;;;4.57;3.28;;;22.40;26.20;;;;;;4927906;28;45547;-83
2023/12/06 15:56:27;;;;;;;4.53;3.70;;;22.40;26.20;;;;;;4910590;28;45276;-82
2023/12/06 15:58:53;;;;;;;5.40;3.70;;;22.40;26.20;;;;;;4948056;28;45175;-80
2023/12/06 16:01:20;;;;;;;6.07;3.92;;;22.40;26.30;;;;;;4910033;28;45330;-80
2023/12/06 16:03:49;;;;;;;5.07;4.35;;;22.30;26.20;;;;;;4948461;28;45231;-80
2023/12/06 16:06:16;;;;;;;6.13;4.43;;;22.30;26.20;;;;;;4927922;28;45257;-81
2023/12/06 16:08:42;;;;;;;6.70;4.63;;;22.30;26.30;;;;;;4957845;28;45260;-80
2023/12/06 16:11:08;;;;;;;7.22;5.20;;;22.30;26.30;;;;;;4942437;28;45064;-80
2023/12/06 16:13:34;;;;;;;8.17;6.20;;;22.30;26.30;;;;;;4941249;28;45697;-80
2023/12/06 16:16:00;;;;;;;9.63;6.10;;;22.20;26.30;;;;;;4935069;28;45222;-80
2023/12/06 16:18:26;;;;;;;9.05;6.88;;;22.20;26.30;;;;;;4911995;28;45102;-80
2023/12/06 16:20:52;;;;;;;11.20;8.10;;;22.20;26.40;;;;;;4930434;28;44894;-82
2023/12/06 16:23:18;;;;;;;11.63;8.27;;;22.20;26.40;;;;;;4929404;28;46357;-80
2023/12/06 16:25:44;;;;;;;12.98;8.77;;;22.20;26.40;;;;;;4930498;28;45114;-80
2023/12/06 16:28:10;;;;;;;14.18;9.57;;;22.20;26.40;;;;;;4913262;28;44681;-81
2023/12/06 16:30:36;;;;;;;14.77;10.10;;;22.20;26.40;;;;;;4934171;28;45219;-80
2023/12/06 16:33:03;;;;;;;15.38;10.40;;;22.20;26.90;;;;;;4946294;28;46413;-80
2023/12/06 16:35:29;;;;;;;14.20;10.40;;;22.20;26.50;;;;;;4944903;28;44848;-80
2023/12/06 16:37:55;;;;;;;13.57;9.83;;;22.20;26.50;;;;;;4932758;28;44699;-80
2023/12/06 16:40:21;;;;;;;15.10;11.10;;;22.20;26.50;;;;;;4939112;28;45222;-80
2023/12/06 16:42:47;;;;;;;16.42;10.98;;;22.20;26.50;;;;;;4932589;28;46371;-80
2023/12/06 16:45:16;;;;;;;14.60;10.70;;;22.20;26.60;;;;;;4906815;28;45472;-80